sensor_id;sensor_type;location;lat;lon;timestamp;pressure;altitude;pressure_sealevel;temperature;humidity
18436;BME280;9346;52.006;4.720;2023-04-16T00:00:15;102170.22;;;9.55;100.00
18436;BME280;9346;52.006;4.720;2023-04-16T00:02:41;102175.13;;;9.53;100.00
18436;BME280;9346;52.006;4.720;2023-04-16T00:05:08;102179.78;;;9.53;100.00
18436;BME280;9346;52.006;4.720;2023-04-16T00:07:37;102181.94;;;9.51;100.00
18436;BME280;9346;52.006;4.720;2023-04-16T00:10:06;102181.81;;;9.46;100.00
18436;BME280;9346;52.006;4.720;2023-04-16T00:12:33;102180.13;;;9.45;100.00
18436;BME280;9346;52.006;4.720;2023-04-16T00:15:00;102180.13;;;9.45;100.00
18436;BME280;9346;52.006;4.720;2023-04-16T00:17:27;102191.38;;;9.43;100.00
18436;BME280;9346;52.006;4.720;2023-04-16T00:19:54;102193.72;;;9.40;100.00
18436;BME280;9346;52.006;4.720;2023-04-16T00:22:21;102190.41;;;9.38;100.00
18436;BME280;9346;52.006;4.720;2023-04-16T00:24:50;102184.75;;;9.33;100.00
18436;BME280;9346;52.006;4.720;2023-04-16T00:27:17;102195.50;;;9.34;100.00
18436;BME280;9346;52.006;4.720;2023-04-16T00:29:45;102187.25;;;9.34;100.00
18436;BME280;9346;52.006;4.720;2023-04-16T00:32:12;102192.16;;;9.32;100.00
18436;BME280;9346;52.006;4.720;2023-04-16T00:34:39;102191.56;;;9.30;100.00
18436;BME280;9346;52.006;4.720;2023-04-16T00:37:06;102187.34;;;9.28;100.00
18436;BME280;9346;52.006;4.720;2023-04-16T00:39:33;102192.03;;;9.27;100.00
18436;BME280;9346;52.006;4.720;2023-04-16T00:42:01;102199.44;;;9.27;100.00
18436;BME280;9346;52.006;4.720;2023-04-16T00:44:28;102187.34;;;9.28;100.00
18436;BME280;9346;52.006;4.720;2023-04-16T00:46:56;102178.03;;;9.29;100.00
18436;BME280;9346;52.006;4.720;2023-04-16T00:49:23;102180.41;;;9.25;100.00
18436;BME280;9346;52.006;4.720;2023-04-16T00:51:50;102185.91;;;9.25;100.00
18436;BME280;9346;52.006;4.720;2023-04-16T00:54:18;102191.19;;;9.27;100.00
18436;BME280;9346;52.006;4.720;2023-04-16T00:56:45;102186.28;;;9.29;100.00
18436;BME280;9346;52.006;4.720;2023-04-16T00:59:14;102193.47;;;9.30;100.00
18436;BME280;9346;52.006;4.720;2023-04-16T01:01:41;102187.34;;;9.28;100.00
18436;BME280;9346;52.006;4.720;2023-04-16T01:04:09;102185.06;;;9.25;100.00
18436;BME280;9346;52.006;4.720;2023-04-16T01:06:36;102197.13;;;9.24;100.00
18436;BME280;9346;52.006;4.720;2023-04-16T01:09:04;102196.56;;;9.22;100.00
18436;BME280;9346;52.006;4.720;2023-04-16T01:11:31;102195.25;;;9.24;100.00
18436;BME280;9346;52.006;4.720;2023-04-16T01:13:58;102197.75;;;9.26;100.00
18436;BME280;9346;52.006;4.720;2023-04-16T01:16:27;102203.50;;;9.24;100.00
18436;BME280;9346;52.006;4.720;2023-04-16T01:18:55;102197.13;;;9.24;100.00
18436;BME280;9346;52.006;4.720;2023-04-16T01:21:24;102200.97;;;9.23;100.00
18436;BME280;9346;52.006;4.720;2023-04-16T01:23:51;102197.75;;;9.26;100.00
18436;BME280;9346;52.006;4.720;2023-04-16T01:26:19;102203.72;;;9.23;100.00
18436;BME280;9346;52.006;4.720;2023-04-16T01:28:46;102197.25;;;9.17;100.00
18436;BME280;9346;52.006;4.720;2023-04-16T01:31:12;102195.53;;;9.16;100.00
18436;BME280;9346;52.006;4.720;2023-04-16T01:33:39;102194.25;;;9.19;100.00
18436;BME280;9346;52.006;4.720;2023-04-16T01:36:07;102196.78;;;9.20;100.00
18436;BME280;9346;52.006;4.720;2023-04-16T01:38:35;102209.69;;;9.20;100.00
18436;BME280;9346;52.006;4.720;2023-04-16T01:41:03;102207.16;;;9.18;100.00
18436;BME280;9346;52.006;4.720;2023-04-16T01:43:30;102208.38;;;9.22;100.00
18436;BME280;9346;52.006;4.720;2023-04-16T01:46:10;102207.56;;;9.22;100.00
18436;BME280;9346;52.006;4.720;2023-04-16T01:48:38;102206.25;;;9.24;100.00
18436;BME280;9346;52.006;4.720;2023-04-16T01:51:04;102208.75;;;9.26;100.00
18436;BME280;9346;52.006;4.720;2023-04-16T01:53:32;102209.56;;;9.26;100.00
18436;BME280;9346;52.006;4.720;2023-04-16T01:56:00;102202.06;;;9.22;100.00
18436;BME280;9346;52.006;4.720;2023-04-16T01:58:27;102209.44;;;9.21;100.00
18436;BME280;9346;52.006;4.720;2023-04-16T02:00:55;102208.59;;;9.21;100.00
18436;BME280;9346;52.006;4.720;2023-04-16T02:03:22;102204.19;;;9.20;100.00
18436;BME280;9346;52.006;4.720;2023-04-16T02:05:50;102211.75;;;9.24;100.00
18436;BME280;9346;52.006;4.720;2023-04-16T02:08:17;102213.63;;;9.24;100.00
18436;BME280;9346;52.006;4.720;2023-04-16T02:10:45;102214.84;;;9.28;100.00
18436;BME280;9346;52.006;4.720;2023-04-16T02:13:17;102217.00;;;9.26;100.00
18436;BME280;9346;52.006;4.720;2023-04-16T02:15:44;102216.38;;;9.24;100.00
18436;BME280;9346;52.006;4.720;2023-04-16T02:18:12;102218.53;;;9.22;100.00
18436;BME280;9346;52.006;4.720;2023-04-16T02:20:39;102221.75;;;9.19;100.00
18436;BME280;9346;52.006;4.720;2023-04-16T02:23:07;102214.56;;;9.18;100.00
18436;BME280;9346;52.006;4.720;2023-04-16T02:25:38;102220.06;;;9.18;100.00
18436;BME280;9346;52.006;4.720;2023-04-16T02:28:06;102227.50;;;9.17;100.00
18436;BME280;9346;52.006;4.720;2023-04-16T02:30:35;102223.66;;;9.18;100.00
18436;BME280;9346;52.006;4.720;2023-04-16T02:33:03;102233.34;;;9.21;100.00
18436;BME280;9346;52.006;4.720;2023-04-16T02:35:31;102222.00;;;9.17;100.00
18436;BME280;9346;52.006;4.720;2023-04-16T02:37:59;102234.25;;;9.14;100.00
18436;BME280;9346;52.006;4.720;2023-04-16T02:40:26;102226.03;;;9.14;100.00
18436;BME280;9346;52.006;4.720;2023-04-16T02:42:54;102230.47;;;9.16;100.00
18436;BME280;9346;52.006;4.720;2023-04-16T02:45:21;102235.75;;;9.17;100.00
18436;BME280;9346;52.006;4.720;2023-04-16T02:47:50;102237.63;;;9.17;100.00
18436;BME280;9346;52.006;4.720;2023-04-16T02:50:17;102239.31;;;9.18;100.00
18436;BME280;9346;52.006;4.720;2023-04-16T02:52:45;102233.00;;;9.17;100.00
18436;BME280;9346;52.006;4.720;2023-04-16T02:55:11;102241.47;;;9.16;100.00
18436;BME280;9346;52.006;4.720;2023-04-16T02:57:38;102240.63;;;9.15;100.00
18436;BME280;9346;52.006;4.720;2023-04-16T03:00:09;102240.84;;;9.13;100.00
18436;BME280;9346;52.006;4.720;2023-04-16T03:02:37;102238.56;;;9.10;100.00
18436;BME280;9346;52.006;4.720;2023-04-16T03:05:06;102240.22;;;9.11;100.00
18436;BME280;9346;52.006;4.720;2023-04-16T03:07:33;102236.44;;;9.13;100.00
18436;BME280;9346;52.006;4.720;2023-04-16T03:10:04;102238.31;;;9.12;100.00
18436;BME280;9346;52.006;4.720;2023-04-16T03:12:31;102250.75;;;9.14;100.00
18436;BME280;9346;52.006;4.720;2023-04-16T03:14:58;102240.63;;;9.15;100.00
18436;BME280;9346;52.006;4.720;2023-04-16T03:17:25;102240.16;;;9.18;100.00
18436;BME280;9346;52.006;4.720;2023-04-16T03:19:52;102241.22;;;9.17;100.00
18436;BME280;9346;52.006;4.720;2023-04-16T03:22:21;102244.22;;;9.16;100.00
18436;BME280;9346;52.006;4.720;2023-04-16T03:24:48;102241.47;;;9.16;100.00
18436;BME280;9346;52.006;4.720;2023-04-16T03:27:15;102246.56;;;9.12;100.00
18436;BME280;9346;52.006;4.720;2023-04-16T03:29:42;102246.34;;;9.13;100.00
18436;BME280;9346;52.006;4.720;2023-04-16T03:32:09;102248.84;;;9.15;100.00
18436;BME280;9346;52.006;4.720;2023-04-16T03:34:37;102253.03;;;9.18;100.00
18436;BME280;9346;52.006;4.720;2023-04-16T03:37:04;102246.50;;;9.19;100.00
18436;BME280;9346;52.006;4.720;2023-04-16T03:39:34;102252.22;;;9.17;100.00
18436;BME280;9346;52.006;4.720;2023-04-16T03:42:02;102246.97;;;9.16;100.00
18436;BME280;9346;52.006;4.720;2023-04-16T03:44:29;102251.59;;;9.15;100.00
18436;BME280;9346;52.006;4.720;2023-04-16T03:46:56;102246.97;;;9.16;100.00
18436;BME280;9346;52.006;4.720;2023-04-16T03:49:23;102245.88;;;9.17;100.00
18436;BME280;9346;52.006;4.720;2023-04-16T03:51:50;102254.13;;;9.17;100.00
18436;BME280;9346;52.006;4.720;2023-04-16T03:54:17;102249.72;;;9.16;100.00
18436;BME280;9346;52.006;4.720;2023-04-16T03:56:45;102249.09;;;9.13;100.00
18436;BME280;9346;52.006;4.720;2023-04-16T03:59:12;102248.00;;;9.14;100.00
18436;BME280;9346;52.006;4.720;2023-04-16T04:01:39;102248.25;;;9.13;100.00
18436;BME280;9346;52.006;4.720;2023-04-16T04:04:06;102251.59;;;9.15;100.00
18436;BME280;9346;52.006;4.720;2023-04-16T04:06:33;102246.34;;;9.13;100.00
18436;BME280;9346;52.006;4.720;2023-04-16T04:09:01;102251.22;;;9.11;100.00
18436;BME280;9346;52.006;4.720;2023-04-16T04:11:28;102251.22;;;9.11;100.00
18436;BME280;9346;52.006;4.720;2023-04-16T04:13:57;102249.09;;;9.13;100.00
18436;BME280;9346;52.006;4.720;2023-04-16T04:16:24;102238.94;;;9.14;100.00
18436;BME280;9346;52.006;4.720;2023-04-16T04:18:51;102251.84;;;9.13;100.00
18436;BME280;9346;52.006;4.720;2023-04-16T04:21:19;102250.41;;;9.11;100.00
18436;BME280;9346;52.006;4.720;2023-04-16T04:23:46;102257.56;;;9.12;100.00
18436;BME280;9346;52.006;4.720;2023-04-16T04:26:13;102253.16;;;9.11;100.00
18436;BME280;9346;52.006;4.720;2023-04-16T04:28:40;102256.72;;;9.11;100.00
18436;BME280;9346;52.006;4.720;2023-04-16T04:31:09;102258.41;;;9.13;100.00
18436;BME280;9346;52.006;4.720;2023-04-16T04:33:36;102266.44;;;9.14;100.00
18436;BME280;9346;52.006;4.720;2023-04-16T04:36:03;102260.72;;;9.16;100.00
18436;BME280;9346;52.006;4.720;2023-04-16T04:38:30;102267.25;;;9.14;100.00
18436;BME280;9346;52.006;4.720;2023-04-16T04:40:58;102268.09;;;9.15;100.00
18436;BME280;9346;52.006;4.720;2023-04-16T04:43:25;102261.75;;;9.14;100.00
18436;BME280;9346;52.006;4.720;2023-04-16T04:45:52;102270.00;;;9.14;100.00
18436;BME280;9346;52.006;4.720;2023-04-16T04:48:21;102277.66;;;9.13;100.00
18436;BME280;9346;52.006;4.720;2023-04-16T04:50:51;102259.25;;;9.13;100.00
18436;BME280;9346;52.006;4.720;2023-04-16T04:53:18;102269.19;;;9.14;100.00
18436;BME280;9346;52.006;4.720;2023-04-16T04:55:45;102270.00;;;9.14;100.00
18436;BME280;9346;52.006;4.720;2023-04-16T04:58:12;102279.94;;;9.16;100.00
18436;BME280;9346;52.006;4.720;2023-04-16T05:00:39;102271.72;;;9.16;100.00
18436;BME280;9346;52.006;4.720;2023-04-16T05:03:09;102266.22;;;9.16;100.00
18436;BME280;9346;52.006;4.720;2023-04-16T05:05:39;102272.97;;;9.13;100.00
18436;BME280;9346;52.006;4.720;2023-04-16T05:08:06;102279.09;;;9.15;100.00
18436;BME280;9346;52.006;4.720;2023-04-16T05:10:33;102282.06;;;9.13;100.00
18436;BME280;9346;52.006;4.720;2023-04-16T05:13:00;102284.38;;;9.17;100.00
18436;BME280;9346;52.006;4.720;2023-04-16T05:15:27;102280.78;;;9.16;100.00
18436;BME280;9346;52.006;4.720;2023-04-16T05:17:54;102281.22;;;9.13;100.00
18436;BME280;9346;52.006;4.720;2023-04-16T05:20:21;102283.16;;;9.13;100.00
18436;BME280;9346;52.006;4.720;2023-04-16T05:22:51;102284.81;;;9.13;100.00
18436;BME280;9346;52.006;4.720;2023-04-16T05:25:19;102290.31;;;9.13;100.00
18436;BME280;9346;52.006;4.720;2023-04-16T05:27:47;102290.94;;;9.16;100.00
18436;BME280;9346;52.006;4.720;2023-04-16T05:30:14;102291.75;;;9.16;100.00
18436;BME280;9346;52.006;4.720;2023-04-16T05:32:41;102297.88;;;9.18;100.00
18436;BME280;9346;52.006;4.720;2023-04-16T05:35:08;102295.53;;;9.22;100.00
18436;BME280;9346;52.006;4.720;2023-04-16T05:37:35;102295.88;;;9.25;100.00
18436;BME280;9346;52.006;4.720;2023-04-16T05:40:06;102304.75;;;9.27;100.00
18436;BME280;9346;52.006;4.720;2023-04-16T05:42:33;102307.28;;;9.29;100.00
18436;BME280;9346;52.006;4.720;2023-04-16T05:45:01;102301.78;;;9.29;100.00
18436;BME280;9346;52.006;4.720;2023-04-16T05:47:28;102302.84;;;9.28;100.00
18436;BME280;9346;52.006;4.720;2023-04-16T05:49:55;102297.56;;;9.26;100.00
18436;BME280;9346;52.006;4.720;2023-04-16T05:52:22;102294.00;;;9.26;100.00
18436;BME280;9346;52.006;4.720;2023-04-16T05:54:49;102301.16;;;9.27;100.00
18436;BME280;9346;52.006;4.720;2023-04-16T05:57:18;102298.63;;;9.25;100.00
18436;BME280;9346;52.006;4.720;2023-04-16T05:59:45;102301.16;;;9.27;100.00
18436;BME280;9346;52.006;4.720;2023-04-16T06:02:11;102300.69;;;9.30;100.00
18436;BME280;9346;52.006;4.720;2023-04-16T06:04:38;102306.81;;;9.32;100.00
18436;BME280;9346;52.006;4.720;2023-04-16T06:07:05;102304.06;;;9.32;100.00
18436;BME280;9346;52.006;4.720;2023-04-16T06:09:32;102304.44;;;9.35;100.00
18436;BME280;9346;52.006;4.720;2023-04-16T06:11:59;102310.16;;;9.34;100.00
18436;BME280;9346;52.006;4.720;2023-04-16T06:14:28;102316.75;;;9.33;100.00
18436;BME280;9346;52.006;4.720;2023-04-16T06:16:55;102317.81;;;9.32;100.00
18436;BME280;9346;52.006;4.720;2023-04-16T06:19:22;102313.13;;;9.32;100.00
18436;BME280;9346;52.006;4.720;2023-04-16T06:21:49;102325.84;;;9.33;100.00
18436;BME280;9346;52.006;4.720;2023-04-16T06:24:16;102322.25;;;9.33;100.00
18436;BME280;9346;52.006;4.720;2023-04-16T06:26:43;102325.00;;;9.33;100.00
18436;BME280;9346;52.006;4.720;2023-04-16T06:29:10;102320.34;;;9.33;100.00
18436;BME280;9346;52.006;4.720;2023-04-16T06:31:39;102331.13;;;9.35;100.00
18436;BME280;9346;52.006;4.720;2023-04-16T06:34:07;102330.25;;;9.34;100.00
18436;BME280;9346;52.006;4.720;2023-04-16T06:36:34;102334.44;;;9.37;100.00
18436;BME280;9346;52.006;4.720;2023-04-16T06:39:01;102338.41;;;9.41;100.00
18436;BME280;9346;52.006;4.720;2023-04-16T06:41:29;102334.63;;;9.42;100.00
18436;BME280;9346;52.006;4.720;2023-04-16T06:43:56;102343.47;;;9.44;100.00
18436;BME280;9346;52.006;4.720;2023-04-16T06:46:22;102339.25;;;9.41;100.00
18436;BME280;9346;52.006;4.720;2023-04-16T06:48:51;102345.63;;;9.42;100.00
18436;BME280;9346;52.006;4.720;2023-04-16T06:51:18;102338.41;;;9.41;100.00
18436;BME280;9346;52.006;4.720;2023-04-16T06:53:45;102342.88;;;9.42;100.00
18436;BME280;9346;52.006;4.720;2023-04-16T06:56:12;102342.00;;;9.41;100.00
18436;BME280;9346;52.006;4.720;2023-04-16T06:58:39;102349.41;;;9.41;100.00
18436;BME280;9346;52.006;4.720;2023-04-16T07:01:06;102346.06;;;9.39;100.00
18436;BME280;9346;52.006;4.720;2023-04-16T07:03:34;102347.28;;;9.43;100.00
18436;BME280;9346;52.006;4.720;2023-04-16T07:06:03;102347.06;;;9.44;100.00
18436;BME280;9346;52.006;4.720;2023-04-16T07:08:30;102347.91;;;9.45;100.00
18436;BME280;9346;52.006;4.720;2023-04-16T07:11:10;102351.72;;;9.44;100.00
18436;BME280;9346;52.006;4.720;2023-04-16T07:13:37;102347.91;;;9.45;100.00
18436;BME280;9346;52.006;4.720;2023-04-16T07:16:05;102354.22;;;9.45;100.00
18436;BME280;9346;52.006;4.720;2023-04-16T07:18:32;102350.03;;;9.43;100.00
18436;BME280;9346;52.006;4.720;2023-04-16T07:20:59;102343.47;;;9.44;100.00
18436;BME280;9346;52.006;4.720;2023-04-16T07:23:28;102355.31;;;9.44;100.00
18436;BME280;9346;52.006;4.720;2023-04-16T07:25:56;102353.19;;;9.46;100.00
18436;BME280;9346;52.006;4.720;2023-04-16T07:28:25;102354.84;;;9.47;100.00
18436;BME280;9346;52.006;4.720;2023-04-16T07:30:54;102350.44;;;9.46;100.00
18436;BME280;9346;52.006;4.720;2023-04-16T07:33:21;102350.66;;;9.45;100.00
18436;BME280;9346;52.006;4.720;2023-04-16T07:35:48;102354.22;;;9.45;100.00
18436;BME280;9346;52.006;4.720;2023-04-16T07:38:15;102357.84;;;9.46;100.00
18436;BME280;9346;52.006;4.720;2023-04-16T07:40:44;102361.19;;;9.48;100.00
18436;BME280;9346;52.006;4.720;2023-04-16T07:43:12;102361.34;;;9.53;100.00
18436;BME280;9346;52.006;4.720;2023-04-16T07:45:40;102361.97;;;9.55;100.00
18436;BME280;9346;52.006;4.720;2023-04-16T07:48:07;102364.69;;;9.55;100.00
18436;BME280;9346;52.006;4.720;2023-04-16T07:50:34;102368.66;;;9.59;100.00
18436;BME280;9346;52.006;4.720;2023-04-16T07:53:01;102370.34;;;9.60;100.00
18436;BME280;9346;52.006;4.720;2023-04-16T07:55:30;102376.47;;;9.62;100.00
18436;BME280;9346;52.006;4.720;2023-04-16T07:57:58;102373.03;;;9.66;100.00
18436;BME280;9346;52.006;4.720;2023-04-16T08:00:26;102369.81;;;9.69;100.00
18436;BME280;9346;52.006;4.720;2023-04-16T08:02:54;102372.31;;;9.71;100.00
18436;BME280;9346;52.006;4.720;2023-04-16T08:05:21;102377.44;;;9.67;100.00
18436;BME280;9346;52.006;4.720;2023-04-16T08:07:48;102380.59;;;9.71;100.00
18436;BME280;9346;52.006;4.720;2023-04-16T08:10:15;102392.41;;;9.71;100.00
18436;BME280;9346;52.006;4.720;2023-04-16T08:12:44;102380.13;;;9.74;100.00
18436;BME280;9346;52.006;4.720;2023-04-16T08:15:13;102389.44;;;9.73;100.00
18436;BME280;9346;52.006;4.720;2023-04-16T08:17:40;102393.88;;;9.74;100.00
18436;BME280;9346;52.006;4.720;2023-04-16T08:20:08;102399.97;;;9.76;100.00
18436;BME280;9346;52.006;4.720;2023-04-16T08:22:35;102398.91;;;9.77;100.00
18436;BME280;9346;52.006;4.720;2023-04-16T08:25:07;102395.72;;;9.80;100.00
18436;BME280;9346;52.006;4.720;2023-04-16T08:27:34;102399.66;;;9.84;100.00
18436;BME280;9346;52.006;4.720;2023-04-16T08:30:01;102406.38;;;9.88;100.00
18436;BME280;9346;52.006;4.720;2023-04-16T08:32:30;102409.75;;;9.90;100.00
18436;BME280;9346;52.006;4.720;2023-04-16T08:34:58;102408.22;;;9.94;100.00
18436;BME280;9346;52.006;4.720;2023-04-16T08:37:25;102404.63;;;9.93;100.00
18436;BME280;9346;52.006;4.720;2023-04-16T08:39:52;102398.41;;;9.98;100.00
18436;BME280;9346;52.006;4.720;2023-04-16T08:42:22;102408.34;;;9.99;100.00
18436;BME280;9346;52.006;4.720;2023-04-16T08:44:59;102409.56;;;10.03;100.00
18436;BME280;9346;52.006;4.720;2023-04-16T08:47:33;102408.25;;;10.05;100.00
18436;BME280;9346;52.006;4.720;2023-04-16T08:50:02;102418.84;;;10.08;100.00
18436;BME280;9346;52.006;4.720;2023-04-16T08:52:30;102413.34;;;10.08;100.00
18436;BME280;9346;52.006;4.720;2023-04-16T08:55:02;102415.00;;;10.09;100.00
18436;BME280;9346;52.006;4.720;2023-04-16T08:57:37;102407.59;;;10.10;100.00
18436;BME280;9346;52.006;4.720;2023-04-16T09:00:10;102411.44;;;10.09;100.00
18436;BME280;9346;52.006;4.720;2023-04-16T09:02:39;102418.38;;;10.11;100.00
18436;BME280;9346;52.006;4.720;2023-04-16T09:05:09;102407.59;;;10.10;100.00
18436;BME280;9346;52.006;4.720;2023-04-16T09:07:36;102419.19;;;10.12;100.00
18436;BME280;9346;52.006;4.720;2023-04-16T09:10:06;102420.06;;;10.12;100.00
18436;BME280;9346;52.006;4.720;2023-04-16T09:12:34;102420.44;;;10.16;100.00
18436;BME280;9346;52.006;4.720;2023-04-16T09:15:01;102418.88;;;10.20;100.00
18436;BME280;9346;52.006;4.720;2023-04-16T09:17:29;102427.31;;;10.25;100.00
18436;BME280;9346;52.006;4.720;2023-04-16T09:19:58;102419.16;;;10.30;100.00
18436;BME280;9346;52.006;4.720;2023-04-16T09:22:25;102429.94;;;10.31;100.00
18436;BME280;9346;52.006;4.720;2023-04-16T09:24:52;102429.47;;;10.34;100.00
18436;BME280;9346;52.006;4.720;2023-04-16T09:27:20;102422.53;;;10.32;100.00
18436;BME280;9346;52.006;4.720;2023-04-16T09:29:48;102422.75;;;10.30;100.00
18436;BME280;9346;52.006;4.720;2023-04-16T09:32:15;102434.38;;;10.32;100.00
18436;BME280;9346;52.006;4.720;2023-04-16T09:34:55;102429.00;;;10.37;100.00
18436;BME280;9346;52.006;4.720;2023-04-16T09:37:26;102428.78;;;10.39;100.00
18436;BME280;9346;52.006;4.720;2023-04-16T09:39:55;102435.13;;;10.39;100.00
18436;BME280;9346;52.006;4.720;2023-04-16T09:42:25;102441.63;;;10.45;100.00
18436;BME280;9346;52.006;4.720;2023-04-16T09:44:53;102432.72;;;10.43;100.00
18436;BME280;9346;52.006;4.720;2023-04-16T09:47:21;102439.91;;;10.44;100.00
18436;BME280;9346;52.006;4.720;2023-04-16T09:49:48;102439.91;;;10.44;100.00
18436;BME280;9346;52.006;4.720;2023-04-16T09:52:20;102443.28;;;10.46;100.00
18436;BME280;9346;52.006;4.720;2023-04-16T09:54:52;102432.25;;;10.46;100.00
18436;BME280;9346;52.006;4.720;2023-04-16T09:57:20;102441.38;;;10.46;100.00
18436;BME280;9346;52.006;4.720;2023-04-16T09:59:48;102437.69;;;10.52;100.00
18436;BME280;9346;52.006;4.720;2023-04-16T10:02:18;102438.88;;;10.56;100.00
18436;BME280;9346;52.006;4.720;2023-04-16T10:04:48;102448.59;;;10.59;100.00
18436;BME280;9346;52.006;4.720;2023-04-16T10:07:16;102447.03;;;10.63;100.00
18436;BME280;9346;52.006;4.720;2023-04-16T10:09:43;102447.19;;;10.68;100.00
18436;BME280;9346;52.006;4.720;2023-04-16T10:12:13;102452.94;;;10.66;100.00
18436;BME280;9346;52.006;4.720;2023-04-16T10:14:41;102456.31;;;10.68;100.00
18436;BME280;9346;52.006;4.720;2023-04-16T10:17:08;102460.34;;;10.66;100.00
18436;BME280;9346;52.006;4.720;2023-04-16T10:19:36;102458.69;;;10.65;100.00
18436;BME280;9346;52.006;4.720;2023-04-16T10:22:03;102456.31;;;10.68;100.00
18436;BME280;9346;52.006;4.720;2023-04-16T10:24:32;102457.13;;;10.69;100.00
18436;BME280;9346;52.006;4.720;2023-04-16T10:27:00;102469.22;;;10.68;100.00
18436;BME280;9346;52.006;4.720;2023-04-16T10:29:30;102470.91;;;10.69;100.00
18436;BME280;9346;52.006;4.720;2023-04-16T10:31:58;102462.63;;;10.69;100.00
18436;BME280;9346;52.006;4.720;2023-04-16T10:34:26;102469.84;;;10.70;100.00
18436;BME280;9346;52.006;4.720;2023-04-16T10:36:53;102472.09;;;10.73;100.00
18436;BME280;9346;52.006;4.720;2023-04-16T10:39:27;102467.22;;;10.75;100.00
18436;BME280;9346;52.006;4.720;2023-04-16T10:42:06;102462.91;;;10.79;100.00
18436;BME280;9346;52.006;4.720;2023-04-16T10:44:35;102467.22;;;10.75;100.00
18436;BME280;9346;52.006;4.720;2023-04-16T10:47:02;102472.94;;;10.73;100.00
18436;BME280;9346;52.006;4.720;2023-04-16T10:49:35;102469.50;;;10.78;100.00
18436;BME280;9346;52.006;4.720;2023-04-16T10:52:09;102468.41;;;10.79;100.00
18436;BME280;9346;52.006;4.720;2023-04-16T10:54:38;102465.19;;;10.82;100.00
18436;BME280;9346;52.006;4.720;2023-04-16T10:57:07;102470.69;;;10.82;100.00
18436;BME280;9346;52.006;4.720;2023-04-16T10:59:37;102480.66;;;10.83;100.00
18436;BME280;9346;52.006;4.720;2023-04-16T11:02:07;102472.63;;;10.81;100.00
18436;BME280;9346;52.006;4.720;2023-04-16T11:04:36;102473.22;;;10.83;100.00
18436;BME280;9346;52.006;4.720;2023-04-16T11:07:05;102474.91;;;10.84;100.00
18436;BME280;9346;52.006;4.720;2023-04-16T11:10:00;102479.09;;;10.87;100.00
18436;BME280;9346;52.006;4.720;2023-04-16T11:12:33;102469.75;;;10.88;100.00
18436;BME280;9346;52.006;4.720;2023-04-16T11:15:04;102468.91;;;10.87;100.00
18436;BME280;9346;52.006;4.720;2023-04-16T11:17:36;102474.41;;;10.87;100.00
18436;BME280;9346;52.006;4.720;2023-04-16T11:20:04;102469.63;;;10.83;100.00
18436;BME280;9346;52.006;4.720;2023-04-16T11:22:33;102470.69;;;10.82;100.00
18436;BME280;9346;52.006;4.720;2023-04-16T11:25:00;102471.31;;;10.84;100.00
18436;BME280;9346;52.006;4.720;2023-04-16T11:27:30;102464.47;;;10.86;100.00
18436;BME280;9346;52.006;4.720;2023-04-16T11:29:59;102474.41;;;10.87;100.00
18436;BME280;9346;52.006;4.720;2023-04-16T11:32:30;102475.25;;;10.88;100.00
18436;BME280;9346;52.006;4.720;2023-04-16T11:34:57;102473.13;;;10.90;100.00
18436;BME280;9346;52.006;4.720;2023-04-16T11:37:31;102472.28;;;10.89;100.00
18436;BME280;9346;52.006;4.720;2023-04-16T11:39:59;102474.78;;;10.91;100.00
18436;BME280;9346;52.006;4.720;2023-04-16T11:42:26;102482.81;;;10.92;100.00
18436;BME280;9346;52.006;4.720;2023-04-16T11:44:54;102474.31;;;10.94;100.00
18436;BME280;9346;52.006;4.720;2023-04-16T11:47:22;102479.34;;;10.97;100.00
18436;BME280;9346;52.006;4.720;2023-04-16T11:49:51;102473.00;;;10.96;100.00
18436;BME280;9346;52.006;4.720;2023-04-16T11:52:25;102471.09;;;10.97;100.00
18436;BME280;9346;52.006;4.720;2023-04-16T11:54:53;102483.78;;;10.98;100.00
18436;BME280;9346;52.006;4.720;2023-04-16T11:57:25;102482.72;;;10.99;100.00
18436;BME280;9346;52.006;4.720;2023-04-16T11:59:54;102474.19;;;11.00;100.00
18436;BME280;9346;52.006;4.720;2023-04-16T12:02:34;102471.34;;;11.07;100.00
18436;BME280;9346;52.006;4.720;2023-04-16T12:05:04;102478.03;;;11.11;100.00
18436;BME280;9346;52.006;4.720;2023-04-16T12:07:42;102473.16;;;11.13;100.00
18436;BME280;9346;52.006;4.720;2023-04-16T12:10:10;102485.03;;;11.13;100.00
18436;BME280;9346;52.006;4.720;2023-04-16T12:12:39;102486.69;;;11.14;100.00
18436;BME280;9346;52.006;4.720;2023-04-16T12:15:07;102487.50;;;11.15;100.00
18436;BME280;9346;52.006;4.720;2023-04-16T12:17:35;102481.19;;;11.14;100.00
18436;BME280;9346;52.006;4.720;2023-04-16T12:20:09;102483.31;;;11.12;100.00
18436;BME280;9346;52.006;4.720;2023-04-16T12:22:37;102479.75;;;11.12;100.00
18436;BME280;9346;52.006;4.720;2023-04-16T12:25:06;102488.13;;;11.17;100.00
18436;BME280;9346;52.006;4.720;2023-04-16T12:27:43;102484.75;;;11.15;100.00
18436;BME280;9346;52.006;4.720;2023-04-16T12:30:12;102488.84;;;11.12;100.00
18436;BME280;9346;52.006;4.720;2023-04-16T12:32:40;102485.25;;;11.12;100.00
18436;BME280;9346;52.006;4.720;2023-04-16T12:35:11;102491.97;;;11.16;100.00
18436;BME280;9346;52.006;4.720;2023-04-16T12:37:38;102486.56;;;11.21;100.00
18436;BME280;9346;52.006;4.720;2023-04-16T12:40:06;102486.31;;;11.22;100.00
18436;BME280;9346;52.006;4.720;2023-04-16T12:42:33;102491.59;;;11.24;100.00
18436;BME280;9346;52.006;4.720;2023-04-16T12:45:02;102486.09;;;11.24;100.00
18436;BME280;9346;52.006;4.720;2023-04-16T12:47:30;102492.47;;;11.24;100.00
18436;BME280;9346;52.006;4.720;2023-04-16T12:49:58;102497.13;;;11.24;100.00
18436;BME280;9346;52.006;4.720;2023-04-16T12:52:27;102499.31;;;11.22;100.00
18436;BME280;9346;52.006;4.720;2023-04-16T12:54:55;102494.13;;;11.25;100.00
18436;BME280;9346;52.006;4.720;2023-04-16T12:57:22;102497.03;;;11.30;100.00
18436;BME280;9346;52.006;4.720;2023-04-16T12:59:53;102492.47;;;11.36;100.00
18436;BME280;9346;52.006;4.720;2023-04-16T13:02:20;102490.31;;;11.38;100.00